Time;durP1;ratioP1;P1;durP2;ratioP2;P2;SDS_P1;SDS_P2;PMS_P1;PMS_P2;Temp;Humidity;BMP_temperature;BMP_pressure;BME280_temperature;BME280_humidity;BME280_pressure;Samples;Min_cycle;Max_cycle;Signal;HPM_P1;HPM_P2
2022/03/13 00:02:16;;;;;;;6.55;1.17;;;21.40;99.90;;;;;;5087843;28;20062;-67
2022/03/13 00:04:49;;;;;;;3.70;0.88;;;21.60;99.90;;;;;;5085540;28;20087;-66
2022/03/13 00:07:21;;;;;;;4.78;0.98;;;21.60;99.90;;;;;;5081817;28;20025;-66
2022/03/13 00:09:52;;;;;;;6.70;1.23;;;21.60;99.90;;;;;;5087720;28;20016;-66
2022/03/13 00:12:26;;;;;;;5.10;1.73;;;21.80;99.90;;;;;;5078331;28;20023;-66
2022/03/13 00:14:56;;;;;;;4.45;0.65;;;21.80;99.90;;;;;;5083188;28;20017;-66
2022/03/13 00:17:30;;;;;;;5.55;0.65;;;21.70;99.90;;;;;;5086219;28;20021;-66
2022/03/13 00:20:02;;;;;;;2.60;0.70;;;21.80;99.90;;;;;;5093844;28;20017;-66
2022/03/13 00:22:32;;;;;;;2.83;0.73;;;21.90;99.90;;;;;;5081976;28;20020;-66
2022/03/13 00:25:04;;;;;;;3.25;0.47;;;22.00;99.90;;;;;;5094734;28;20013;-67
2022/03/13 00:27:34;;;;;;;4.50;0.80;;;22.00;99.90;;;;;;5101439;28;20017;-67
2022/03/13 00:30:04;;;;;;;3.33;0.77;;;22.20;99.90;;;;;;5093902;28;20009;-67
2022/03/13 00:32:32;;;;;;;6.10;2.25;;;22.10;99.90;;;;;;5089426;28;20001;-67
2022/03/13 00:34:59;;;;;;;3.38;0.82;;;22.20;99.90;;;;;;5087085;28;20028;-67
2022/03/13 00:37:26;;;;;;;5.13;1.60;;;22.30;99.90;;;;;;5081825;28;20131;-67
2022/03/13 00:39:56;;;;;;;7.63;0.80;;;22.20;99.90;;;;;;5084678;28;20037;-67
2022/03/13 00:42:24;;;;;;;7.10;1.92;;;22.10;99.90;;;;;;5079554;28;20033;-67
2022/03/13 00:44:51;;;;;;;5.07;1.10;;;22.10;99.90;;;;;;5080950;28;20036;-67
2022/03/13 00:47:21;;;;;;;5.40;1.17;;;22.00;99.90;;;;;;5080097;28;20020;-67
2022/03/13 00:49:50;;;;;;;3.05;1.08;;;22.00;99.90;;;;;;5083404;28;20025;-67
2022/03/13 00:52:18;;;;;;;3.42;0.65;;;22.00;99.90;;;;;;5082660;28;20073;-67
2022/03/13 00:54:46;;;;;;;5.57;1.33;;;22.00;99.90;;;;;;5081691;28;20017;-68
2022/03/13 00:57:13;;;;;;;7.18;0.98;;;22.10;99.90;;;;;;5091212;28;20142;-67
2022/03/13 00:59:41;;;;;;;6.90;1.00;;;22.10;99.90;;;;;;5093190;28;20037;-66
2022/03/13 01:02:10;;;;;;;5.70;0.68;;;22.20;99.90;;;;;;5081049;28;20043;-67
2022/03/13 01:04:38;;;;;;;8.88;1.65;;;22.20;99.90;;;;;;5098832;28;20008;-67
2022/03/13 01:07:05;;;;;;;6.63;1.30;;;22.10;99.90;;;;;;5080409;28;20030;-67
2022/03/13 01:09:34;;;;;;;3.70;0.82;;;22.10;99.90;;;;;;5078503;28;20024;-67
2022/03/13 01:12:02;;;;;;;7.50;1.00;;;22.10;99.90;;;;;;5079762;28;20005;-67
2022/03/13 01:14:32;;;;;;;4.93;0.90;;;22.00;99.90;;;;;;5079816;28;20083;-67
2022/03/13 01:17:08;;;;;;;4.32;0.93;;;22.00;99.90;;;;;;5081548;28;20017;-67
2022/03/13 01:19:37;;;;;;;7.68;1.83;;;21.90;99.90;;;;;;5079147;28;20043;-67
2022/03/13 01:22:05;;;;;;;6.13;1.27;;;21.90;99.90;;;;;;5079143;28;20085;-67
2022/03/13 01:24:43;;;;;;;6.57;1.10;;;21.90;99.90;;;;;;5081011;28;20009;-67
2022/03/13 01:27:12;;;;;;;5.97;1.60;;;21.80;99.90;;;;;;5079512;28;20069;-67
2022/03/13 01:29:40;;;;;;;4.40;0.90;;;21.80;99.90;;;;;;5079707;28;20017;-66
2022/03/13 01:34:53;;;;;;;3.55;0.88;;;21.60;99.90;;;;;;5079544;28;20033;-67
2022/03/13 01:37:29;;;;;;;3.72;1.13;;;21.60;99.90;;;;;;5080123;28;20013;-67
2022/03/13 01:39:59;;;;;;;4.25;1.13;;;21.60;99.90;;;;;;5083117;28;20036;-67
2022/03/13 01:42:26;;;;;;;3.75;0.80;;;21.60;99.90;;;;;;5078829;28;20156;-67
2022/03/13 01:44:54;;;;;;;12.52;2.15;;;21.60;99.90;;;;;;5078700;28;20040;-66
2022/03/13 01:47:23;;;;;;;5.05;1.58;;;21.60;99.90;;;;;;5078835;28;20017;-67
2022/03/13 01:49:51;;;;;;;7.60;1.35;;;21.70;99.90;;;;;;5078347;28;20051;-67
2022/03/13 01:52:26;;;;;;;4.43;0.88;;;21.80;99.90;;;;;;5078734;28;20035;-66
2022/03/13 01:54:56;;;;;;;8.23;1.67;;;21.80;99.90;;;;;;5080206;28;20025;-66
2022/03/13 01:57:28;;;;;;;5.30;0.70;;;21.90;99.90;;;;;;5078721;28;20037;-67
2022/03/13 01:59:58;;;;;;;9.27;1.70;;;21.90;99.90;;;;;;5078955;28;20020;-67
2022/03/13 02:02:29;;;;;;;5.05;0.65;;;22.00;99.90;;;;;;5078293;28;20005;-67
2022/03/13 02:04:58;;;;;;;6.80;1.48;;;22.00;99.90;;;;;;5078734;28;20021;-67
2022/03/13 02:07:28;;;;;;;8.02;1.27;;;22.10;99.90;;;;;;5078328;28;20044;-67
2022/03/13 02:09:56;;;;;;;3.33;0.73;;;22.30;99.90;;;;;;5078634;28;20016;-67
2022/03/13 02:12:26;;;;;;;7.35;1.90;;;22.40;99.90;;;;;;5078283;28;20092;-67
2022/03/13 02:14:54;;;;;;;5.35;1.20;;;22.50;99.90;;;;;;5081228;28;20021;-66
2022/03/13 02:17:34;;;;;;;4.95;1.60;;;22.50;99.90;;;;;;5078217;28;20009;-68
2022/03/13 02:20:03;;;;;;;7.72;0.85;;;22.60;99.90;;;;;;5078169;28;20017;-67
2022/03/13 02:22:32;;;;;;;3.80;0.70;;;22.70;99.90;;;;;;5078358;28;20044;-67
2022/03/13 02:25:00;;;;;;;7.07;0.88;;;22.70;99.90;;;;;;5078876;28;20024;-67
2022/03/13 02:27:29;;;;;;;3.22;0.50;;;22.80;99.90;;;;;;5080405;28;20008;-67
2022/03/13 02:29:57;;;;;;;2.47;0.60;;;22.80;99.90;;;;;;5079198;28;20041;-67
2022/03/13 02:32:25;;;;;;;2.15;0.60;;;22.80;99.90;;;;;;5084501;28;20035;-68
2022/03/13 02:34:55;;;;;;;2.50;0.45;;;22.80;99.90;;;;;;5088030;28;20025;-68
2022/03/13 02:37:43;;;;;;;1.45;0.30;;;22.80;99.90;;;;;;5078434;28;20029;-67
2022/03/13 02:40:26;;;;;;;3.08;0.73;;;22.70;99.90;;;;;;5078180;28;20140;-68
2022/03/13 02:42:56;;;;;;;4.15;0.40;;;22.70;99.90;;;;;;5077968;28;20037;-67
2022/03/13 02:45:30;;;;;;;3.47;0.73;;;22.60;99.90;;;;;;5078327;28;20017;-68
2022/03/13 02:47:57;;;;;;;;;;;22.60;99.90;;;;;;5078015;28;20033;-67
2022/03/13 02:50:26;;;;;;;3.80;0.60;;;22.50;99.90;;;;;;5078101;28;19919;-68
2022/03/13 02:52:53;;;;;;;4.43;0.70;;;22.40;99.90;;;;;;5077944;28;20037;-68
2022/03/13 02:55:21;;;;;;;2.97;0.50;;;22.40;99.90;;;;;;5077830;28;20028;-68
2022/03/13 02:57:49;;;;;;;3.20;0.43;;;22.50;99.90;;;;;;5077827;28;20016;-67
2022/03/13 03:00:17;;;;;;;2.80;0.40;;;22.30;99.90;;;;;;5078121;28;20041;-68
2022/03/13 03:02:45;;;;;;;2.95;0.55;;;22.30;99.90;;;;;;5077971;28;20013;-68
2022/03/13 03:05:15;;;;;;;4.28;0.47;;;22.20;99.90;;;;;;5078128;28;20044;-67
2022/03/13 03:07:42;;;;;;;6.32;1.00;;;22.20;99.90;;;;;;5077759;28;20033;-67
2022/03/13 03:10:13;;;;;;;11.52;6.32;;;22.40;99.90;;;;;;5078301;28;20040;-67
2022/03/13 03:12:41;;;;;;;3.17;0.77;;;22.30;99.90;;;;;;5077567;28;20020;-67
2022/03/13 03:15:09;;;;;;;3.88;1.45;;;22.40;99.90;;;;;;5078855;28;20127;-66
2022/03/13 03:17:36;;;;;;;6.65;1.35;;;22.20;99.90;;;;;;5077819;28;20019;-67
2022/03/13 03:20:05;;;;;;;2.88;0.93;;;22.00;99.90;;;;;;5078150;28;20012;-67
2022/03/13 03:22:33;;;;;;;3.33;1.50;;;21.90;99.90;;;;;;5080850;28;20025;-67
2022/03/13 03:25:01;;;;;;;3.22;1.20;;;22.10;99.90;;;;;;5077114;28;20017;-67
2022/03/13 03:27:30;;;;;;;3.85;0.50;;;22.40;99.90;;;;;;5080349;28;20013;-67
2022/03/13 03:30:00;;;;;;;2.58;0.77;;;22.60;99.90;;;;;;5076883;28;20009;-67
2022/03/13 03:32:28;;;;;;;2.22;0.82;;;22.50;99.90;;;;;;5081909;28;20070;-67
2022/03/13 03:34:55;;;;;;;0.75;0.40;;;22.70;99.90;;;;;;5081277;28;20111;-67
2022/03/13 03:37:23;;;;;;;3.60;0.80;;;22.60;99.90;;;;;;5080657;28;20037;-67
2022/03/13 03:39:50;;;;;;;4.32;1.05;;;22.40;99.90;;;;;;5082177;28;20035;-67
2022/03/13 03:42:18;;;;;;;3.40;1.10;;;22.40;99.90;;;;;;5080961;28;20021;-67
2022/03/13 03:44:45;;;;;;;5.18;2.55;;;22.30;99.90;;;;;;5082216;28;20025;-67
2022/03/13 03:47:13;;;;;;;5.18;2.70;;;22.20;99.90;;;;;;5081009;28;20024;-67
2022/03/13 03:49:40;;;;;;;4.15;1.17;;;22.20;99.90;;;;;;5094128;28;20037;-67
2022/03/13 03:52:08;;;;;;;4.18;0.75;;;22.30;99.90;;;;;;5101220;28;20047;-67
2022/03/13 03:54:36;;;;;;;4.68;2.00;;;22.30;99.90;;;;;;5089040;28;20029;-67
2022/03/13 03:57:04;;;;;;;4.88;2.30;;;22.40;99.90;;;;;;5080573;28;20013;-67
2022/03/13 03:59:31;;;;;;;4.15;1.38;;;22.50;99.90;;;;;;5080731;28;20015;-67
2022/03/13 04:01:59;;;;;;;6.57;1.80;;;22.60;99.90;;;;;;5080823;28;20009;-67
2022/03/13 04:04:26;;;;;;;4.38;2.10;;;22.60;99.90;;;;;;5081324;28;20033;-66
2022/03/13 04:06:53;;;;;;;6.53;2.13;;;22.70;99.90;;;;;;5094011;28;20008;-67
2022/03/13 04:09:21;;;;;;;5.30;3.60;;;22.60;99.90;;;;;;5095598;28;20072;-66
2022/03/13 04:11:49;;;;;;;7.57;1.58;;;22.70;99.90;;;;;;5080528;28;20048;-66
2022/03/13 04:14:18;;;;;;;5.85;3.95;;;22.50;99.90;;;;;;5083585;28;20025;-67
2022/03/13 04:16:46;;;;;;;2.88;0.98;;;22.50;99.90;;;;;;5098434;28;20021;-67
2022/03/13 04:19:14;;;;;;;3.60;0.63;;;22.60;99.90;;;;;;5095732;28;20021;-67
2022/03/13 04:21:42;;;;;;;2.75;1.50;;;22.80;99.90;;;;;;5080279;28;20032;-67
2022/03/13 04:24:11;;;;;;;2.85;0.95;;;22.80;99.90;;;;;;5079987;28;20021;-66
2022/03/13 04:26:40;;;;;;;2.40;0.73;;;23.00;99.90;;;;;;5096586;28;20064;-66
2022/03/13 04:29:10;;;;;;;2.58;0.40;;;23.10;99.90;;;;;;5096401;28;20012;-67
2022/03/13 04:31:39;;;;;;;2.30;0.70;;;23.00;99.90;;;;;;5080337;28;20009;-67
2022/03/13 04:34:07;;;;;;;5.63;1.67;;;23.10;99.90;;;;;;5080454;28;20036;-66
2022/03/13 04:36:37;;;;;;;5.93;1.30;;;23.10;99.90;;;;;;5079475;28;20023;-67
2022/03/13 04:39:06;;;;;;;5.47;1.98;;;23.00;99.90;;;;;;5081567;28;20055;-66
2022/03/13 04:41:34;;;;;;;2.53;0.93;;;22.80;99.90;;;;;;5079732;28;20063;-66
2022/03/13 04:44:03;;;;;;;3.70;1.38;;;22.50;99.90;;;;;;5078522;28;20016;-66
2022/03/13 04:46:30;;;;;;;1.58;0.88;;;22.30;99.90;;;;;;5079509;28;20025;-66
2022/03/13 04:48:58;;;;;;;3.58;0.85;;;22.30;99.90;;;;;;5086442;28;20042;-67
2022/03/13 04:51:26;;;;;;;5.30;1.02;;;22.20;99.90;;;;;;5099997;28;20032;-67
2022/03/13 04:53:53;;;;;;;4.40;0.80;;;22.20;99.90;;;;;;5097944;28;20063;-68
2022/03/13 04:56:21;;;;;;;5.63;1.30;;;22.30;99.90;;;;;;5079969;28;20021;-67
2022/03/13 04:58:49;;;;;;;4.30;1.40;;;22.30;99.90;;;;;;5080446;28;20068;-66
2022/03/13 05:01:19;;;;;;;7.97;1.52;;;22.30;99.90;;;;;;5079844;28;20020;-67
2022/03/13 05:03:47;;;;;;;6.50;1.65;;;22.30;99.90;;;;;;5079804;28;20013;-67
2022/03/13 05:06:17;;;;;;;3.58;0.77;;;22.40;99.90;;;;;;5082430;28;20027;-68
2022/03/13 05:08:49;;;;;;;2.75;0.55;;;22.50;99.90;;;;;;5097144;28;20013;-68
2022/03/13 05:11:17;;;;;;;6.55;1.23;;;22.50;99.90;;;;;;5085629;28;20023;-68
2022/03/13 05:13:45;;;;;;;4.22;0.95;;;22.20;99.90;;;;;;5086568;28;20056;-67
2022/03/13 05:16:13;;;;;;;4.18;0.70;;;22.10;99.90;;;;;;5088843;28;20036;-67
2022/03/13 05:18:41;;;;;;;3.75;1.05;;;22.10;99.90;;;;;;5079321;28;20008;-67
2022/03/13 05:21:08;;;;;;;5.25;1.10;;;22.10;99.90;;;;;;5093283;28;20060;-67
2022/03/13 05:23:36;;;;;;;2.25;0.80;;;22.10;99.90;;;;;;5085306;28;20047;-67
2022/03/13 05:26:03;;;;;;;1.23;0.30;;;22.10;99.90;;;;;;5080270;28;20036;-67
2022/03/13 05:28:30;;;;;;;5.00;0.43;;;22.30;99.90;;;;;;5080051;28;20068;-67
2022/03/13 05:30:58;;;;;;;4.72;1.08;;;22.20;99.90;;;;;;5086195;28;20029;-67
2022/03/13 05:33:25;;;;;;;2.75;0.35;;;22.10;99.90;;;;;;5086764;28;20041;-67
2022/03/13 05:35:53;;;;;;;5.13;0.50;;;22.10;99.90;;;;;;5078767;28;20201;-67
2022/03/13 05:38:20;;;;;;;3.53;0.57;;;22.20;99.90;;;;;;5097165;28;20007;-67
2022/03/13 05:40:48;;;;;;;3.30;0.50;;;22.30;99.90;;;;;;5079817;28;20075;-67
2022/03/13 05:43:16;;;;;;;3.75;0.35;;;22.30;99.90;;;;;;5078613;28;20036;-67
2022/03/13 05:45:45;;;;;;;3.97;0.60;;;22.20;99.90;;;;;;5078208;28;20032;-67
2022/03/13 05:48:17;;;;;;;2.42;0.60;;;22.30;99.90;;;;;;5085147;28;20035;-67
2022/03/13 05:50:46;;;;;;;2.35;0.40;;;22.10;99.90;;;;;;5091134;28;20033;-68
2022/03/13 05:53:14;;;;;;;3.78;0.65;;;22.10;99.90;;;;;;5087941;28;20022;-67
2022/03/13 05:55:43;;;;;;;2.40;0.52;;;22.10;99.90;;;;;;5080656;28;20024;-68
2022/03/13 05:58:13;;;;;;;4.18;0.60;;;22.00;99.90;;;;;;5078559;28;20012;-68
2022/03/13 06:00:40;;;;;;;4.10;0.82;;;22.00;99.90;;;;;;5078064;28;20293;-68
2022/03/13 06:03:09;;;;;;;4.10;1.40;;;22.10;99.90;;;;;;5078256;28;20051;-67
2022/03/13 06:05:37;;;;;;;4.47;0.40;;;22.10;99.90;;;;;;5088676;28;20037;-67
2022/03/13 06:08:05;;;;;;;2.60;0.50;;;22.00;99.90;;;;;;5097874;28;20084;-68
2022/03/13 06:10:32;;;;;;;4.72;0.80;;;22.10;99.90;;;;;;5082760;28;20036;-68
2022/03/13 06:13:00;;;;;;;4.75;0.50;;;22.30;99.90;;;;;;5077808;28;20668;-67
2022/03/13 06:15:28;;;;;;;2.88;0.50;;;22.20;99.90;;;;;;5078640;28;20017;-67
2022/03/13 06:17:58;;;;;;;3.53;0.47;;;22.20;99.90;;;;;;5077388;28;20108;-67
2022/03/13 06:20:25;;;;;;;4.35;1.35;;;22.10;99.90;;;;;;5078456;28;20102;-67
2022/03/13 06:22:53;;;;;;;3.50;1.02;;;22.00;99.90;;;;;;5080313;28;20093;-68
2022/03/13 06:25:21;;;;;;;3.17;0.40;;;21.90;99.90;;;;;;5078436;28;20036;-67
2022/03/13 06:27:48;;;;;;;4.15;0.50;;;22.00;99.90;;;;;;5078227;28;20001;-68
2022/03/13 06:30:17;;;;;;;2.58;0.75;;;22.10;99.90;;;;;;5081351;28;20043;-67
2022/03/13 06:32:50;;;;;;;2.38;0.30;;;22.10;99.90;;;;;;5078198;28;20036;-67
2022/03/13 06:35:24;;;;;;;2.50;0.55;;;22.10;99.90;;;;;;5078688;28;20021;-67
2022/03/13 06:37:52;;;;;;;2.50;0.40;;;22.10;99.90;;;;;;5077476;28;20013;-67
2022/03/13 06:40:22;;;;;;;5.38;0.50;;;22.00;99.90;;;;;;5078302;28;20036;-68
2022/03/13 06:42:53;;;;;;;3.17;0.40;;;21.90;99.90;;;;;;5077732;28;20089;-67
2022/03/13 06:45:20;;;;;;;2.05;0.30;;;21.90;99.90;;;;;;5077961;28;20017;-68
2022/03/13 06:47:49;;;;;;;5.75;0.50;;;21.90;99.90;;;;;;5078141;28;20023;-67
2022/03/13 06:50:19;;;;;;;3.05;0.30;;;21.80;99.90;;;;;;5078481;28;20059;-67
2022/03/13 06:52:48;;;;;;;1.00;0.30;;;21.80;99.90;;;;;;5078034;28;20012;-67
2022/03/13 06:55:16;;;;;;;4.18;0.80;;;21.80;99.90;;;;;;5078633;28;20025;-67
2022/03/13 06:57:45;;;;;;;2.78;0.43;;;21.80;99.90;;;;;;5077774;28;20016;-67
2022/03/13 07:00:15;;;;;;;3.80;0.63;;;21.70;99.90;;;;;;5078245;28;20009;-68
2022/03/13 07:02:43;;;;;;;2.60;0.55;;;21.60;99.90;;;;;;5077809;28;20093;-67
2022/03/13 07:05:11;;;;;;;4.05;0.80;;;21.60;99.90;;;;;;5078595;28;20021;-67
2022/03/13 07:07:39;;;;;;;3.35;0.50;;;21.60;99.90;;;;;;5080670;28;20083;-67
2022/03/13 07:10:10;;;;;;;4.15;0.68;;;21.60;99.90;;;;;;5082464;28;20080;-67
2022/03/13 07:12:40;;;;;;;2.28;0.63;;;21.60;99.90;;;;;;5082038;28;20036;-67
2022/03/13 07:15:13;;;;;;;1.63;0.30;;;21.60;99.90;;;;;;5081757;28;20052;-67
2022/03/13 07:17:45;;;;;;;2.15;0.35;;;21.50;99.90;;;;;;5081816;28;20013;-67
2022/03/13 07:20:14;;;;;;;3.88;0.77;;;21.40;99.90;;;;;;5081749;28;20020;-67
2022/03/13 07:22:44;;;;;;;3.65;0.80;;;21.40;99.90;;;;;;5081255;28;20005;-67
2022/03/13 07:25:14;;;;;;;5.50;0.70;;;21.40;99.90;;;;;;5081801;28;20013;-67
2022/03/13 07:27:42;;;;;;;6.35;1.20;;;21.40;99.90;;;;;;5081687;28;20101;-67
2022/03/13 07:30:12;;;;;;;6.30;0.80;;;21.40;99.90;;;;;;5081910;28;20017;-67
2022/03/13 07:32:43;;;;;;;3.63;1.10;;;21.40;99.90;;;;;;5081525;28;20025;-68
2022/03/13 07:35:11;;;;;;;3.75;0.88;;;21.50;99.90;;;;;;5086883;28;20025;-67
2022/03/13 07:37:39;;;;;;;2.88;0.30;;;21.40;99.90;;;;;;5081611;28;20009;-67
2022/03/13 07:40:07;;;;;;;3.65;0.70;;;21.40;99.90;;;;;;5081271;28;20013;-66
2022/03/13 07:42:35;;;;;;;3.85;0.80;;;21.40;99.90;;;;;;5081567;28;20055;-67
2022/03/13 07:45:02;;;;;;;3.40;0.50;;;21.30;99.90;;;;;;5080956;28;20073;-67
2022/03/13 07:47:30;;;;;;;4.72;0.70;;;21.30;99.90;;;;;;5081046;28;20030;-67
2022/03/13 07:49:58;;;;;;;3.92;0.45;;;21.30;99.90;;;;;;5080985;28;20100;-67
2022/03/13 07:52:25;;;;;;;4.50;1.55;;;21.30;99.90;;;;;;5079694;28;20065;-67
2022/03/13 07:54:56;;;;;;;3.72;1.10;;;21.30;99.90;;;;;;5080574;28;20588;-66
2022/03/13 07:57:24;;;;;;;4.57;1.02;;;21.30;99.90;;;;;;5085665;28;20013;-67
2022/03/13 07:59:51;;;;;;;4.28;0.80;;;21.30;99.90;;;;;;5081577;28;20017;-67
2022/03/13 08:02:19;;;;;;;4.30;0.65;;;21.30;99.90;;;;;;5084830;28;20005;-67
2022/03/13 08:04:46;;;;;;;4.55;1.05;;;21.30;99.90;;;;;;5086343;28;20033;-67
2022/03/13 08:07:45;;;;;;;4.35;0.73;;;21.40;99.90;;;;;;5080102;28;20044;-67
2022/03/13 08:10:13;;;;;;;3.25;0.65;;;21.30;99.90;;;;;;5086774;28;20041;-67
2022/03/13 08:12:41;;;;;;;2.90;0.57;;;21.30;99.90;;;;;;5087412;28;20037;-68
2022/03/13 08:15:09;;;;;;;3.42;0.50;;;21.20;99.90;;;;;;5091073;28;20039;-67
2022/03/13 08:17:36;;;;;;;2.70;0.70;;;21.20;99.90;;;;;;5082058;28;20020;-68
2022/03/13 08:20:05;;;;;;;3.70;0.68;;;21.20;99.90;;;;;;5083577;28;20128;-67
2022/03/13 08:22:32;;;;;;;2.45;0.60;;;21.20;99.90;;;;;;5085367;28;20036;-67
2022/03/13 08:25:00;;;;;;;1.63;0.68;;;21.20;99.90;;;;;;5080950;28;20046;-67
2022/03/13 08:27:27;;;;;;;4.55;1.13;;;21.20;99.90;;;;;;5090501;28;20016;-67
2022/03/13 08:29:54;;;;;;;6.25;0.57;;;21.20;99.90;;;;;;5088732;28;20047;-67
2022/03/13 08:32:22;;;;;;;3.30;0.90;;;21.20;99.90;;;;;;5082933;28;20016;-67
2022/03/13 08:34:50;;;;;;;4.47;0.82;;;21.20;99.90;;;;;;5095363;28;20080;-67
2022/03/13 08:37:18;;;;;;;3.00;0.60;;;21.20;99.90;;;;;;5087044;28;20021;-68
2022/03/13 08:39:45;;;;;;;5.38;0.70;;;21.20;99.90;;;;;;5079077;28;20009;-67
2022/03/13 08:42:13;;;;;;;3.08;0.40;;;21.20;99.90;;;;;;5093342;28;20058;-67
2022/03/13 08:44:40;;;;;;;4.85;0.52;;;21.10;99.90;;;;;;5084987;28;20029;-67
2022/03/13 08:47:07;;;;;;;3.67;0.47;;;21.10;99.90;;;;;;5094532;28;20068;-67
2022/03/13 08:49:35;;;;;;;4.00;0.45;;;21.00;99.90;;;;;;5081275;28;20098;-68
2022/03/13 08:52:02;;;;;;;4.82;0.57;;;21.00;99.90;;;;;;5080994;28;20009;-67
2022/03/13 08:54:29;;;;;;;3.67;0.60;;;21.00;99.90;;;;;;5079306;28;20024;-67
2022/03/13 08:56:56;;;;;;;1.92;0.28;;;20.90;99.90;;;;;;5082386;28;20017;-67
2022/03/13 08:59:24;;;;;;;3.30;0.43;;;20.90;99.90;;;;;;5080680;28;20017;-67
2022/03/13 09:01:51;;;;;;;2.63;0.40;;;20.90;99.90;;;;;;5079536;28;20040;-67
2022/03/13 09:04:20;;;;;;;3.55;0.50;;;20.90;99.90;;;;;;5079395;28;20077;-67
2022/03/13 09:06:49;;;;;;;2.33;0.40;;;20.90;99.90;;;;;;5085411;28;20016;-67
2022/03/13 09:09:18;;;;;;;6.43;0.80;;;20.90;99.90;;;;;;5091775;28;20043;-67
2022/03/13 09:11:47;;;;;;;2.67;0.60;;;20.90;99.90;;;;;;5078307;28;20064;-67
2022/03/13 09:14:14;;;;;;;3.75;0.50;;;20.90;99.90;;;;;;5079324;28;20024;-67
2022/03/13 09:16:43;;;;;;;7.22;0.68;;;20.90;99.90;;;;;;5082355;28;20040;-67
2022/03/13 09:19:10;;;;;;;2.28;0.70;;;20.90;99.90;;;;;;5081733;28;20043;-67
2022/03/13 09:21:41;;;;;;;2.80;1.20;;;21.00;99.90;;;;;;5086849;28;20048;-69
2022/03/13 09:24:10;;;;;;;1.05;0.32;;;20.90;99.90;;;;;;5080231;28;20017;-67
2022/03/13 09:26:40;;;;;;;3.65;0.70;;;20.90;99.90;;;;;;5079464;28;20037;-67
2022/03/13 09:29:08;;;;;;;4.15;0.88;;;20.90;99.90;;;;;;5081295;28;20012;-67
2022/03/13 09:31:36;;;;;;;4.95;0.73;;;20.90;99.90;;;;;;5087031;28;20023;-67
2022/03/13 09:34:03;;;;;;;2.25;0.40;;;20.90;99.90;;;;;;5079570;28;20092;-68
2022/03/13 09:36:35;;;;;;;3.92;0.55;;;20.90;99.90;;;;;;5082076;28;20017;-69
2022/03/13 09:39:05;;;;;;;2.85;0.40;;;20.90;99.90;;;;;;5078759;28;20009;-67
2022/03/13 09:41:32;;;;;;;4.45;0.50;;;20.90;99.90;;;;;;5077592;28;20012;-67
2022/03/13 09:44:00;;;;;;;3.03;0.30;;;20.90;99.90;;;;;;5079103;28;20063;-67
2022/03/13 09:46:27;;;;;;;3.00;0.55;;;20.90;99.90;;;;;;5088365;28;20028;-67
2022/03/13 09:48:54;;;;;;;2.50;0.47;;;20.90;99.90;;;;;;5092710;28;20009;-67
2022/03/13 09:51:23;;;;;;;6.20;0.50;;;20.90;99.90;;;;;;5091073;28;20052;-67
2022/03/13 09:53:51;;;;;;;2.72;0.38;;;20.90;99.90;;;;;;5081346;28;20048;-67
2022/03/13 09:56:18;;;;;;;3.40;0.30;;;20.90;99.90;;;;;;5076313;28;20029;-63
2022/03/13 09:58:46;;;;;;;6.88;0.70;;;20.90;99.90;;;;;;5074442;28;20017;-67
2022/03/13 10:01:13;;;;;;;3.35;0.38;;;20.90;99.90;;;;;;5077859;28;20012;-67
2022/03/13 10:03:41;;;;;;;2.10;0.25;;;20.90;99.90;;;;;;5094539;28;20017;-67
2022/03/13 10:06:09;;;;;;;3.50;0.40;;;20.90;99.90;;;;;;5081293;28;20036;-67
2022/03/13 10:08:36;;;;;;;3.08;0.60;;;20.90;99.90;;;;;;5079486;28;20077;-67
2022/03/13 10:11:04;;;;;;;3.33;0.75;;;20.90;99.90;;;;;;5089630;28;20008;-67
2022/03/13 10:13:37;;;;;;;1.80;0.25;;;20.90;99.90;;;;;;5096420;28;20047;-67
2022/03/13 10:16:06;;;;;;;4.22;0.52;;;20.90;99.90;;;;;;5086000;28;20017;-67
2022/03/13 10:18:34;;;;;;;7.93;0.50;;;20.90;99.90;;;;;;5078556;28;20025;-67
2022/03/13 10:21:16;;;;;;;4.13;0.30;;;20.90;99.90;;;;;;5081117;28;20025;-66
2022/03/13 10:23:47;;;;;;;0.98;0.25;;;20.80;99.90;;;;;;5078360;28;20027;-66
2022/03/13 10:26:17;;;;;;;2.17;0.40;;;20.80;99.90;;;;;;5083693;28;20043;-67
2022/03/13 10:28:45;;;;;;;2.60;0.75;;;20.80;99.90;;;;;;5079875;28;20111;-68
2022/03/13 10:31:17;;;;;;;1.92;0.50;;;20.80;99.90;;;;;;5078701;28;20013;-68
2022/03/13 10:33:44;;;;;;;3.83;0.43;;;20.90;99.90;;;;;;5082909;28;20025;-68
2022/03/13 10:36:19;;;;;;;4.72;0.75;;;20.90;99.90;;;;;;5089988;28;20043;-68
2022/03/13 10:38:49;;;;;;;1.55;0.30;;;20.80;99.90;;;;;;5085334;28;20021;-68
2022/03/13 10:41:17;;;;;;;2.20;0.40;;;20.80;99.90;;;;;;5080215;28;20077;-68
2022/03/13 10:43:51;;;;;;;3.40;0.50;;;20.80;99.90;;;;;;5075895;28;20017;-68
2022/03/13 10:46:34;;;;;;;2.88;0.28;;;20.80;99.90;;;;;;5078438;28;20021;-68
2022/03/13 10:49:06;;;;;;;2.13;0.40;;;20.70;99.90;;;;;;5078181;28;20024;-68
2022/03/13 10:51:38;;;;;;;2.58;0.52;;;20.70;99.90;;;;;;5091717;28;20029;-68
2022/03/13 10:54:06;;;;;;;4.95;0.82;;;20.70;99.90;;;;;;5080401;28;20025;-66
2022/03/13 10:56:34;;;;;;;2.17;0.47;;;20.60;99.90;;;;;;5086925;28;20055;-66
2022/03/13 10:59:20;;;;;;;2.85;0.57;;;20.60;99.90;;;;;;5084771;28;20020;-67
2022/03/13 11:02:14;;;;;;;4.38;0.50;;;20.60;99.90;;;;;;5083783;28;20028;-67
2022/03/13 11:04:51;;;;;;;3.67;0.53;;;20.50;99.90;;;;;;5078997;28;20017;-67
2022/03/13 11:07:20;;;;;;;2.40;0.50;;;20.50;99.90;;;;;;5080136;28;20037;-67
2022/03/13 11:09:48;;;;;;;4.47;0.50;;;20.50;99.90;;;;;;5080225;28;20021;-67
2022/03/13 11:12:23;;;;;;;6.15;0.35;;;20.40;99.90;;;;;;5089748;28;20031;-67
2022/03/13 11:14:55;;;;;;;2.10;0.50;;;20.40;99.90;;;;;;5077854;28;20064;-68
2022/03/13 11:17:30;;;;;;;2.75;0.30;;;20.40;99.90;;;;;;5080410;28;20013;-68
2022/03/13 11:19:58;;;;;;;3.70;0.70;;;20.40;99.90;;;;;;5092946;28;20016;-67
2022/03/13 11:22:27;;;;;;;4.25;0.50;;;20.30;99.90;;;;;;5085894;28;20013;-67
2022/03/13 11:24:58;;;;;;;5.25;0.60;;;20.30;99.90;;;;;;5080696;28;20028;-67
2022/03/13 11:27:26;;;;;;;5.70;0.73;;;20.20;99.90;;;;;;5077197;28;20013;-67
2022/03/13 11:29:57;;;;;;;2.10;0.50;;;20.20;99.90;;;;;;5081654;28;20273;-67
2022/03/13 11:32:47;;;;;;;1.75;0.43;;;20.20;99.90;;;;;;5089019;28;20020;-67
2022/03/13 11:35:14;;;;;;;3.63;0.80;;;20.20;99.90;;;;;;5079500;28;20029;-67
2022/03/13 11:38:14;;;;;;;2.25;0.40;;;20.20;99.90;;;;;;5079149;28;20005;-67
2022/03/13 11:40:42;;;;;;;2.70;0.43;;;20.20;99.90;;;;;;5079407;28;20011;-67
2022/03/13 11:43:22;;;;;;;3.60;0.55;;;20.10;99.90;;;;;;5083659;28;20011;-67
2022/03/13 11:45:52;;;;;;;3.58;0.47;;;20.10;99.90;;;;;;5086633;28;20584;-67
2022/03/13 11:48:22;;;;;;;2.88;0.40;;;20.00;99.90;;;;;;5076958;28;20009;-67
2022/03/13 11:50:55;;;;;;;6.85;0.93;;;20.00;99.90;;;;;;5078244;28;20013;-67
2022/03/13 11:53:24;;;;;;;5.43;0.85;;;20.00;99.90;;;;;;5085918;28;20037;-67
2022/03/13 11:56:13;;;;;;;3.20;0.40;;;20.00;99.90;;;;;;5089982;28;20012;-67
2022/03/13 11:58:49;;;;;;;1.30;0.30;;;20.00;99.90;;;;;;5097281;28;20020;-67
2022/03/13 12:01:21;;;;;;;3.75;0.60;;;20.00;99.90;;;;;;5085511;28;20013;-67
2022/03/13 12:04:03;;;;;;;4.68;1.00;;;20.00;99.90;;;;;;5088722;28;20066;-67
2022/03/13 12:06:41;;;;;;;2.58;0.40;;;20.10;99.90;;;;;;5084237;28;20021;-67
2022/03/13 12:09:14;;;;;;;1.92;0.30;;;20.10;99.90;;;;;;5085281;28;20016;-67
2022/03/13 12:11:46;;;;;;;8.27;1.02;;;20.10;99.90;;;;;;5090422;28;20016;-67
2022/03/13 12:14:14;;;;;;;4.03;0.75;;;20.10;99.90;;;;;;5086743;28;20020;-67
2022/03/13 12:16:43;;;;;;;2.83;0.68;;;20.10;99.90;;;;;;5091559;28;20023;-67
2022/03/13 12:19:11;;;;;;;3.58;0.93;;;20.10;99.90;;;;;;5083053;28;20024;-67
2022/03/13 12:21:43;;;;;;;3.47;0.30;;;20.20;99.90;;;;;;5080601;28;20021;-67
2022/03/13 12:24:15;;;;;;;3.10;0.88;;;20.20;99.90;;;;;;5080103;28;20017;-67
2022/03/13 12:26:53;;;;;;;4.13;0.80;;;20.20;99.90;;;;;;5088328;28;20039;-67
2022/03/13 12:29:20;;;;;;;4.30;0.70;;;20.30;99.90;;;;;;5085480;28;20005;-67
2022/03/13 12:31:53;;;;;;;7.05;0.93;;;20.30;99.90;;;;;;5086524;28;20020;-67
2022/03/13 12:34:31;;;;;;;4.60;0.82;;;20.30;99.90;;;;;;5081849;28;20056;-66
2022/03/13 12:37:07;;;;;;;6.40;0.70;;;20.30;99.90;;;;;;5086088;28;20043;-67
2022/03/13 12:39:35;;;;;;;1.73;0.52;;;20.20;99.90;;;;;;5081347;28;20021;-67
2022/03/13 12:42:06;;;;;;;5.55;0.60;;;20.20;99.90;;;;;;5082591;28;20037;-67
2022/03/13 12:44:37;;;;;;;4.53;0.55;;;20.20;99.90;;;;;;5079407;28;20044;-67
2022/03/13 12:47:04;;;;;;;3.97;0.60;;;20.20;99.90;;;;;;5080732;28;20005;-67
2022/03/13 12:49:36;;;;;;;2.85;0.55;;;20.30;99.90;;;;;;5079961;28;20017;-67
2022/03/13 12:52:13;;;;;;;2.33;0.50;;;20.20;99.90;;;;;;5079520;28;20039;-67
2022/03/13 12:54:42;;;;;;;2.60;0.63;;;20.20;99.90;;;;;;5089936;28;20028;-67
2022/03/13 12:57:10;;;;;;;3.95;0.70;;;20.20;99.90;;;;;;5083626;28;20303;-67
2022/03/13 12:59:41;;;;;;;3.60;0.60;;;20.20;99.90;;;;;;5096499;28;20036;-67
2022/03/13 13:02:25;;;;;;;2.78;0.50;;;20.20;99.90;;;;;;5087623;28;20024;-67
2022/03/13 13:04:57;;;;;;;4.57;0.70;;;20.20;99.90;;;;;;5087315;28;20044;-67